sensor_id;sensor_type;location;lat;lon;timestamp;temperature;humidity
18823;DHT22;9540;51.550;7.980;2023-01-16T00:00:06;3.80;99.90
18823;DHT22;9540;51.550;7.980;2023-01-16T00:02:33;3.80;99.90
18823;DHT22;9540;51.550;7.980;2023-01-16T00:05:01;3.80;99.90
18823;DHT22;9540;51.550;7.980;2023-01-16T00:07:28;3.70;99.90
18823;DHT22;9540;51.550;7.980;2023-01-16T00:09:55;3.60;99.90
18823;DHT22;9540;51.550;7.980;2023-01-16T00:12:22;3.50;99.90
18823;DHT22;9540;51.550;7.980;2023-01-16T00:14:50;3.50;99.90
18823;DHT22;9540;51.550;7.980;2023-01-16T00:17:17;3.50;99.90
18823;DHT22;9540;51.550;7.980;2023-01-16T00:19:45;3.40;99.90
18823;DHT22;9540;51.550;7.980;2023-01-16T00:22:12;3.40;99.90
18823;DHT22;9540;51.550;7.980;2023-01-16T00:24:39;3.50;99.90
18823;DHT22;9540;51.550;7.980;2023-01-16T00:27:06;3.50;99.90
18823;DHT22;9540;51.550;7.980;2023-01-16T00:29:33;3.80;99.90
18823;DHT22;9540;51.550;7.980;2023-01-16T00:32:02;3.90;99.90
18823;DHT22;9540;51.550;7.980;2023-01-16T00:34:29;4.10;99.90
18823;DHT22;9540;51.550;7.980;2023-01-16T00:36:56;4.30;99.90
18823;DHT22;9540;51.550;7.980;2023-01-16T00:39:23;4.30;99.90
18823;DHT22;9540;51.550;7.980;2023-01-16T00:41:50;4.20;99.90
18823;DHT22;9540;51.550;7.980;2023-01-16T00:44:17;4.10;99.90
18823;DHT22;9540;51.550;7.980;2023-01-16T00:46:45;4.00;99.90
18823;DHT22;9540;51.550;7.980;2023-01-16T00:49:13;4.00;99.90
18823;DHT22;9540;51.550;7.980;2023-01-16T00:51:40;3.90;99.90
18823;DHT22;9540;51.550;7.980;2023-01-16T00:54:07;3.80;99.90
18823;DHT22;9540;51.550;7.980;2023-01-16T00:56:34;3.80;99.90
18823;DHT22;9540;51.550;7.980;2023-01-16T00:59:02;3.80;99.90
18823;DHT22;9540;51.550;7.980;2023-01-16T01:01:29;3.80;99.90
18823;DHT22;9540;51.550;7.980;2023-01-16T01:03:58;3.70;99.90
18823;DHT22;9540;51.550;7.980;2023-01-16T01:06:27;3.70;99.90
18823;DHT22;9540;51.550;7.980;2023-01-16T01:08:54;3.60;99.90
18823;DHT22;9540;51.550;7.980;2023-01-16T01:11:21;3.60;99.90
18823;DHT22;9540;51.550;7.980;2023-01-16T01:13:49;3.60;99.90
18823;DHT22;9540;51.550;7.980;2023-01-16T01:16:17;3.60;99.90
18823;DHT22;9540;51.550;7.980;2023-01-16T01:18:44;3.70;99.90
18823;DHT22;9540;51.550;7.980;2023-01-16T01:21:11;3.70;99.90
18823;DHT22;9540;51.550;7.980;2023-01-16T01:23:39;3.70;99.90
18823;DHT22;9540;51.550;7.980;2023-01-16T01:26:07;3.60;99.90
18823;DHT22;9540;51.550;7.980;2023-01-16T01:28:36;3.50;99.90
18823;DHT22;9540;51.550;7.980;2023-01-16T01:31:03;3.40;99.90
18823;DHT22;9540;51.550;7.980;2023-01-16T01:33:30;3.30;99.90
18823;DHT22;9540;51.550;7.980;2023-01-16T01:35:58;3.30;99.90
18823;DHT22;9540;51.550;7.980;2023-01-16T01:38:25;3.30;99.90
18823;DHT22;9540;51.550;7.980;2023-01-16T01:40:53;3.30;99.90
18823;DHT22;9540;51.550;7.980;2023-01-16T01:43:20;3.20;99.90
18823;DHT22;9540;51.550;7.980;2023-01-16T01:45:50;3.20;99.90
18823;DHT22;9540;51.550;7.980;2023-01-16T01:48:25;3.20;99.90
18823;DHT22;9540;51.550;7.980;2023-01-16T01:50:56;3.20;99.90
18823;DHT22;9540;51.550;7.980;2023-01-16T01:53:27;3.20;99.90
18823;DHT22;9540;51.550;7.980;2023-01-16T01:56:00;3.20;99.90
18823;DHT22;9540;51.550;7.980;2023-01-16T01:58:28;3.10;99.90
18823;DHT22;9540;51.550;7.980;2023-01-16T02:00:57;3.00;99.90
18823;DHT22;9540;51.550;7.980;2023-01-16T02:03:29;3.00;99.90
18823;DHT22;9540;51.550;7.980;2023-01-16T02:06:00;2.90;99.90
18823;DHT22;9540;51.550;7.980;2023-01-16T02:08:31;2.80;99.90
18823;DHT22;9540;51.550;7.980;2023-01-16T02:11:03;2.80;99.90
18823;DHT22;9540;51.550;7.980;2023-01-16T02:13:31;2.70;99.90
18823;DHT22;9540;51.550;7.980;2023-01-16T02:15:58;2.60;99.90
18823;DHT22;9540;51.550;7.980;2023-01-16T02:18:43;2.60;99.90
18823;DHT22;9540;51.550;7.980;2023-01-16T02:24:52;2.60;99.90
18823;DHT22;9540;51.550;7.980;2023-01-16T02:27:52;2.70;99.90
18823;DHT22;9540;51.550;7.980;2023-01-16T02:30:35;2.80;99.90
18823;DHT22;9540;51.550;7.980;2023-01-16T02:33:13;2.90;99.90
18823;DHT22;9540;51.550;7.980;2023-01-16T02:35:52;2.80;99.90
18823;DHT22;9540;51.550;7.980;2023-01-16T02:38:34;2.70;99.90
18823;DHT22;9540;51.550;7.980;2023-01-16T02:41:12;2.60;99.90
18823;DHT22;9540;51.550;7.980;2023-01-16T02:43:49;2.50;99.90
18823;DHT22;9540;51.550;7.980;2023-01-16T02:46:25;2.30;99.90
18823;DHT22;9540;51.550;7.980;2023-01-16T02:49:02;2.20;99.90
18823;DHT22;9540;51.550;7.980;2023-01-16T02:51:36;2.20;99.90
18823;DHT22;9540;51.550;7.980;2023-01-16T02:54:10;2.30;99.90
18823;DHT22;9540;51.550;7.980;2023-01-16T02:56:41;2.30;99.90
18823;DHT22;9540;51.550;7.980;2023-01-16T02:59:13;2.40;99.90
18823;DHT22;9540;51.550;7.980;2023-01-16T03:01:41;2.50;99.90
18823;DHT22;9540;51.550;7.980;2023-01-16T03:04:41;2.50;99.90
18823;DHT22;9540;51.550;7.980;2023-01-16T03:07:21;2.60;99.90
18823;DHT22;9540;51.550;7.980;2023-01-16T03:09:58;2.70;99.90
18823;DHT22;9540;51.550;7.980;2023-01-16T03:12:32;2.70;99.90
18823;DHT22;9540;51.550;7.980;2023-01-16T03:15:10;2.70;99.90
18823;DHT22;9540;51.550;7.980;2023-01-16T03:17:48;2.80;99.90
18823;DHT22;9540;51.550;7.980;2023-01-16T03:20:27;2.70;99.90
18823;DHT22;9540;51.550;7.980;2023-01-16T03:23:06;2.50;99.90
18823;DHT22;9540;51.550;7.980;2023-01-16T03:25:37;2.50;99.90
18823;DHT22;9540;51.550;7.980;2023-01-16T03:28:10;2.60;99.90
18823;DHT22;9540;51.550;7.980;2023-01-16T03:30:47;2.70;99.90
18823;DHT22;9540;51.550;7.980;2023-01-16T03:33:25;2.80;99.90
18823;DHT22;9540;51.550;7.980;2023-01-16T03:36:00;2.90;99.90
18823;DHT22;9540;51.550;7.980;2023-01-16T03:38:29;2.90;99.90
18823;DHT22;9540;51.550;7.980;2023-01-16T03:41:01;2.80;99.90
18823;DHT22;9540;51.550;7.980;2023-01-16T03:43:33;2.80;99.90
18823;DHT22;9540;51.550;7.980;2023-01-16T03:46:07;2.80;99.90
18823;DHT22;9540;51.550;7.980;2023-01-16T03:48:39;2.80;99.90
18823;DHT22;9540;51.550;7.980;2023-01-16T03:51:17;2.80;99.90
18823;DHT22;9540;51.550;7.980;2023-01-16T03:53:51;2.80;99.90
18823;DHT22;9540;51.550;7.980;2023-01-16T03:56:28;2.90;99.90
18823;DHT22;9540;51.550;7.980;2023-01-16T03:58:57;2.90;99.90
18823;DHT22;9540;51.550;7.980;2023-01-16T04:01:28;3.00;99.90
18823;DHT22;9540;51.550;7.980;2023-01-16T04:04:02;3.00;99.90
18823;DHT22;9540;51.550;7.980;2023-01-16T04:06:35;3.10;99.90
18823;DHT22;9540;51.550;7.980;2023-01-16T04:09:08;3.10;99.90
18823;DHT22;9540;51.550;7.980;2023-01-16T04:11:39;3.00;99.90
18823;DHT22;9540;51.550;7.980;2023-01-16T04:14:07;3.00;99.90
18823;DHT22;9540;51.550;7.980;2023-01-16T04:16:36;2.90;99.90
18823;DHT22;9540;51.550;7.980;2023-01-16T04:19:05;2.90;99.90
18823;DHT22;9540;51.550;7.980;2023-01-16T04:21:35;2.80;99.90
18823;DHT22;9540;51.550;7.980;2023-01-16T04:24:03;2.80;99.90
18823;DHT22;9540;51.550;7.980;2023-01-16T04:26:31;2.70;99.90
18823;DHT22;9540;51.550;7.980;2023-01-16T04:28:58;2.70;99.90
18823;DHT22;9540;51.550;7.980;2023-01-16T04:31:25;2.70;99.90
18823;DHT22;9540;51.550;7.980;2023-01-16T04:33:53;2.80;99.90
18823;DHT22;9540;51.550;7.980;2023-01-16T04:36:21;2.70;99.90
18823;DHT22;9540;51.550;7.980;2023-01-16T04:38:49;2.60;99.90
18823;DHT22;9540;51.550;7.980;2023-01-16T04:41:16;2.60;99.90
18823;DHT22;9540;51.550;7.980;2023-01-16T04:44:01;2.60;99.90
18823;DHT22;9540;51.550;7.980;2023-01-16T04:46:28;2.50;99.90
18823;DHT22;9540;51.550;7.980;2023-01-16T04:48:56;2.40;99.90
18823;DHT22;9540;51.550;7.980;2023-01-16T04:51:24;2.40;99.90
18823;DHT22;9540;51.550;7.980;2023-01-16T04:53:52;2.30;99.90
18823;DHT22;9540;51.550;7.980;2023-01-16T04:56:19;2.40;99.90
18823;DHT22;9540;51.550;7.980;2023-01-16T04:58:46;2.40;99.90
18823;DHT22;9540;51.550;7.980;2023-01-16T05:01:16;2.40;99.90
18823;DHT22;9540;51.550;7.980;2023-01-16T05:03:43;2.30;99.90
18823;DHT22;9540;51.550;7.980;2023-01-16T05:06:10;2.40;99.90
18823;DHT22;9540;51.550;7.980;2023-01-16T05:08:37;2.40;99.90
18823;DHT22;9540;51.550;7.980;2023-01-16T05:11:06;2.40;99.90
18823;DHT22;9540;51.550;7.980;2023-01-16T05:13:33;2.50;99.90
18823;DHT22;9540;51.550;7.980;2023-01-16T05:16:00;2.40;99.90
18823;DHT22;9540;51.550;7.980;2023-01-16T05:18:27;2.40;99.90
18823;DHT22;9540;51.550;7.980;2023-01-16T05:20:54;2.40;99.90
18823;DHT22;9540;51.550;7.980;2023-01-16T05:23:21;2.40;99.90
18823;DHT22;9540;51.550;7.980;2023-01-16T05:25:49;2.50;99.90
18823;DHT22;9540;51.550;7.980;2023-01-16T05:28:18;2.60;99.90
18823;DHT22;9540;51.550;7.980;2023-01-16T05:30:47;2.60;99.90
18823;DHT22;9540;51.550;7.980;2023-01-16T05:33:14;2.70;99.90
18823;DHT22;9540;51.550;7.980;2023-01-16T05:35:41;2.70;99.90
18823;DHT22;9540;51.550;7.980;2023-01-16T05:38:08;2.70;99.90
18823;DHT22;9540;51.550;7.980;2023-01-16T05:40:35;2.70;99.90
18823;DHT22;9540;51.550;7.980;2023-01-16T05:43:03;2.70;99.90
18823;DHT22;9540;51.550;7.980;2023-01-16T05:45:31;2.70;99.90
18823;DHT22;9540;51.550;7.980;2023-01-16T05:47:59;2.60;99.90
18823;DHT22;9540;51.550;7.980;2023-01-16T05:50:26;2.70;99.90
18823;DHT22;9540;51.550;7.980;2023-01-16T05:52:53;2.70;99.90
18823;DHT22;9540;51.550;7.980;2023-01-16T05:55:20;2.60;99.90
18823;DHT22;9540;51.550;7.980;2023-01-16T05:57:47;2.60;99.90
18823;DHT22;9540;51.550;7.980;2023-01-16T06:00:16;2.60;99.90
18823;DHT22;9540;51.550;7.980;2023-01-16T06:02:45;2.60;99.90
18823;DHT22;9540;51.550;7.980;2023-01-16T06:05:13;2.50;99.90
18823;DHT22;9540;51.550;7.980;2023-01-16T06:07:40;2.60;99.90
18823;DHT22;9540;51.550;7.980;2023-01-16T06:10:09;2.60;99.90
18823;DHT22;9540;51.550;7.980;2023-01-16T06:12:37;2.60;99.90
18823;DHT22;9540;51.550;7.980;2023-01-16T06:15:05;2.80;99.90
18823;DHT22;9540;51.550;7.980;2023-01-16T06:17:33;2.80;99.90
18823;DHT22;9540;51.550;7.980;2023-01-16T06:20:02;3.00;99.90
18823;DHT22;9540;51.550;7.980;2023-01-16T06:22:29;3.00;99.90
18823;DHT22;9540;51.550;7.980;2023-01-16T06:24:56;3.00;99.90
18823;DHT22;9540;51.550;7.980;2023-01-16T06:27:23;3.10;99.90
18823;DHT22;9540;51.550;7.980;2023-01-16T06:29:50;3.10;99.90
18823;DHT22;9540;51.550;7.980;2023-01-16T06:32:17;3.20;99.90
18823;DHT22;9540;51.550;7.980;2023-01-16T06:34:44;3.20;99.90
18823;DHT22;9540;51.550;7.980;2023-01-16T06:37:13;3.20;99.90
18823;DHT22;9540;51.550;7.980;2023-01-16T06:39:40;3.30;99.90
18823;DHT22;9540;51.550;7.980;2023-01-16T06:42:07;3.40;99.90
18823;DHT22;9540;51.550;7.980;2023-01-16T06:44:35;3.30;99.90
18823;DHT22;9540;51.550;7.980;2023-01-16T06:47:02;3.30;99.90
18823;DHT22;9540;51.550;7.980;2023-01-16T06:49:30;3.40;99.90
18823;DHT22;9540;51.550;7.980;2023-01-16T06:51:57;3.30;99.90
18823;DHT22;9540;51.550;7.980;2023-01-16T06:54:27;3.30;99.90
18823;DHT22;9540;51.550;7.980;2023-01-16T06:56:54;3.40;99.90
18823;DHT22;9540;51.550;7.980;2023-01-16T06:59:21;3.30;99.90
18823;DHT22;9540;51.550;7.980;2023-01-16T07:01:48;3.50;99.90
18823;DHT22;9540;51.550;7.980;2023-01-16T07:04:15;3.60;99.90
18823;DHT22;9540;51.550;7.980;2023-01-16T07:06:42;3.70;99.90
18823;DHT22;9540;51.550;7.980;2023-01-16T07:09:10;3.70;99.90
18823;DHT22;9540;51.550;7.980;2023-01-16T07:11:39;3.80;99.90
18823;DHT22;9540;51.550;7.980;2023-01-16T07:14:06;3.90;99.90
18823;DHT22;9540;51.550;7.980;2023-01-16T07:16:50;4.00;99.90
18823;DHT22;9540;51.550;7.980;2023-01-16T07:19:35;4.20;99.90
18823;DHT22;9540;51.550;7.980;2023-01-16T07:22:19;4.30;99.90
18823;DHT22;9540;51.550;7.980;2023-01-16T07:25:07;4.40;99.90
18823;DHT22;9540;51.550;7.980;2023-01-16T07:27:38;4.40;99.90
18823;DHT22;9540;51.550;7.980;2023-01-16T07:30:09;4.40;99.90
18823;DHT22;9540;51.550;7.980;2023-01-16T07:32:37;4.50;99.90
18823;DHT22;9540;51.550;7.980;2023-01-16T07:35:05;4.60;99.90
18823;DHT22;9540;51.550;7.980;2023-01-16T07:37:33;4.50;99.90
18823;DHT22;9540;51.550;7.980;2023-01-16T07:40:00;4.50;99.90
18823;DHT22;9540;51.550;7.980;2023-01-16T07:42:27;4.60;99.90
18823;DHT22;9540;51.550;7.980;2023-01-16T07:44:56;4.50;99.90
18823;DHT22;9540;51.550;7.980;2023-01-16T07:47:23;4.60;99.90
18823;DHT22;9540;51.550;7.980;2023-01-16T07:49:50;4.60;99.90
18823;DHT22;9540;51.550;7.980;2023-01-16T07:52:17;4.70;99.90
18823;DHT22;9540;51.550;7.980;2023-01-16T07:54:44;4.80;99.90
18823;DHT22;9540;51.550;7.980;2023-01-16T07:57:11;4.80;99.90
18823;DHT22;9540;51.550;7.980;2023-01-16T07:59:38;4.90;99.90
18823;DHT22;9540;51.550;7.980;2023-01-16T08:02:08;5.00;99.90
18823;DHT22;9540;51.550;7.980;2023-01-16T08:04:36;5.00;99.90
18823;DHT22;9540;51.550;7.980;2023-01-16T08:07:06;4.90;99.90
18823;DHT22;9540;51.550;7.980;2023-01-16T08:09:33;4.90;99.90
18823;DHT22;9540;51.550;7.980;2023-01-16T08:12:00;4.90;99.90
18823;DHT22;9540;51.550;7.980;2023-01-16T08:14:28;5.00;99.90
18823;DHT22;9540;51.550;7.980;2023-01-16T08:16:55;5.00;99.90
18823;DHT22;9540;51.550;7.980;2023-01-16T08:19:24;5.00;99.90
18823;DHT22;9540;51.550;7.980;2023-01-16T08:21:51;5.00;99.90
18823;DHT22;9540;51.550;7.980;2023-01-16T08:24:19;5.10;99.90
18823;DHT22;9540;51.550;7.980;2023-01-16T08:26:46;5.10;99.90
18823;DHT22;9540;51.550;7.980;2023-01-16T08:29:13;5.10;99.90
18823;DHT22;9540;51.550;7.980;2023-01-16T08:31:40;5.10;99.90
18823;DHT22;9540;51.550;7.980;2023-01-16T08:34:07;5.10;99.90
18823;DHT22;9540;51.550;7.980;2023-01-16T08:36:36;5.10;99.90
18823;DHT22;9540;51.550;7.980;2023-01-16T08:39:03;5.10;99.90
18823;DHT22;9540;51.550;7.980;2023-01-16T08:41:31;5.10;99.90
18823;DHT22;9540;51.550;7.980;2023-01-16T08:44:15;5.10;99.90
18823;DHT22;9540;51.550;7.980;2023-01-16T08:47:02;5.20;99.90
18823;DHT22;9540;51.550;7.980;2023-01-16T08:49:48;5.20;99.90
18823;DHT22;9540;51.550;7.980;2023-01-16T08:52:35;5.20;99.90
18823;DHT22;9540;51.550;7.980;2023-01-16T08:55:03;5.10;99.90
18823;DHT22;9540;51.550;7.980;2023-01-16T08:57:30;5.10;99.90
18823;DHT22;9540;51.550;7.980;2023-01-16T08:59:57;5.10;99.90
18823;DHT22;9540;51.550;7.980;2023-01-16T09:02:25;5.10;99.90
18823;DHT22;9540;51.550;7.980;2023-01-16T09:04:53;5.10;99.90
18823;DHT22;9540;51.550;7.980;2023-01-16T09:07:21;5.00;99.90
18823;DHT22;9540;51.550;7.980;2023-01-16T09:09:52;5.00;99.90
18823;DHT22;9540;51.550;7.980;2023-01-16T09:12:19;5.10;99.90
18823;DHT22;9540;51.550;7.980;2023-01-16T09:15:05;5.00;99.90
18823;DHT22;9540;51.550;7.980;2023-01-16T09:17:32;4.90;99.90
18823;DHT22;9540;51.550;7.980;2023-01-16T09:19:59;4.70;99.90
18823;DHT22;9540;51.550;7.980;2023-01-16T09:22:29;4.60;99.90
18823;DHT22;9540;51.550;7.980;2023-01-16T09:24:58;4.50;99.90
18823;DHT22;9540;51.550;7.980;2023-01-16T09:27:25;4.50;99.90
18823;DHT22;9540;51.550;7.980;2023-01-16T09:29:52;4.40;99.90
18823;DHT22;9540;51.550;7.980;2023-01-16T09:32:20;4.40;99.90
18823;DHT22;9540;51.550;7.980;2023-01-16T09:34:47;4.40;99.90
18823;DHT22;9540;51.550;7.980;2023-01-16T09:37:17;4.40;99.90
18823;DHT22;9540;51.550;7.980;2023-01-16T09:39:44;4.40;99.90
18823;DHT22;9540;51.550;7.980;2023-01-16T09:42:33;4.40;99.90
18823;DHT22;9540;51.550;7.980;2023-01-16T09:45:25;4.50;99.90
18823;DHT22;9540;51.550;7.980;2023-01-16T09:47:57;4.50;99.90
18823;DHT22;9540;51.550;7.980;2023-01-16T09:50:30;4.50;99.90
18823;DHT22;9540;51.550;7.980;2023-01-16T09:52:59;4.50;99.90
18823;DHT22;9540;51.550;7.980;2023-01-16T09:55:55;4.60;99.90
18823;DHT22;9540;51.550;7.980;2023-01-16T09:58:46;4.70;99.90
18823;DHT22;9540;51.550;7.980;2023-01-16T10:01:16;4.80;99.90
18823;DHT22;9540;51.550;7.980;2023-01-16T10:03:45;4.80;99.90
18823;DHT22;9540;51.550;7.980;2023-01-16T10:06:18;4.90;99.90
18823;DHT22;9540;51.550;7.980;2023-01-16T10:09:01;4.90;99.90
18823;DHT22;9540;51.550;7.980;2023-01-16T10:11:35;4.90;99.90
18823;DHT22;9540;51.550;7.980;2023-01-16T10:14:44;5.00;99.90
18823;DHT22;9540;51.550;7.980;2023-01-16T10:17:20;5.00;99.90
18823;DHT22;9540;51.550;7.980;2023-01-16T10:20:05;5.10;99.90
18823;DHT22;9540;51.550;7.980;2023-01-16T10:22:44;5.10;99.90
18823;DHT22;9540;51.550;7.980;2023-01-16T10:25:22;5.10;99.90
18823;DHT22;9540;51.550;7.980;2023-01-16T10:27:59;5.10;99.90
18823;DHT22;9540;51.550;7.980;2023-01-16T10:30:32;5.20;99.90
18823;DHT22;9540;51.550;7.980;2023-01-16T10:33:05;5.20;99.90
18823;DHT22;9540;51.550;7.980;2023-01-16T10:35:39;5.20;99.90
18823;DHT22;9540;51.550;7.980;2023-01-16T10:38:19;5.30;99.90
18823;DHT22;9540;51.550;7.980;2023-01-16T10:40:48;5.40;99.90
18823;DHT22;9540;51.550;7.980;2023-01-16T10:43:21;5.40;99.90
18823;DHT22;9540;51.550;7.980;2023-01-16T10:46:15;5.50;99.90
18823;DHT22;9540;51.550;7.980;2023-01-16T10:49:01;5.50;99.90
18823;DHT22;9540;51.550;7.980;2023-01-16T10:51:42;5.50;99.90
18823;DHT22;9540;51.550;7.980;2023-01-16T10:54:09;5.50;99.90
18823;DHT22;9540;51.550;7.980;2023-01-16T10:56:36;5.60;99.90
18823;DHT22;9540;51.550;7.980;2023-01-16T10:59:04;5.50;99.90
18823;DHT22;9540;51.550;7.980;2023-01-16T11:01:33;5.30;99.90
18823;DHT22;9540;51.550;7.980;2023-01-16T11:04:00;5.20;99.90
18823;DHT22;9540;51.550;7.980;2023-01-16T11:06:29;5.20;99.90
18823;DHT22;9540;51.550;7.980;2023-01-16T11:09:01;5.00;99.90
18823;DHT22;9540;51.550;7.980;2023-01-16T11:11:29;4.90;99.90
18823;DHT22;9540;51.550;7.980;2023-01-16T11:14:19;4.80;99.90
18823;DHT22;9540;51.550;7.980;2023-01-16T11:17:22;4.80;99.90
18823;DHT22;9540;51.550;7.980;2023-01-16T11:20:09;4.60;99.90
18823;DHT22;9540;51.550;7.980;2023-01-16T11:22:39;4.60;99.90
18823;DHT22;9540;51.550;7.980;2023-01-16T11:25:14;4.60;99.90
18823;DHT22;9540;51.550;7.980;2023-01-16T11:27:44;4.50;99.90
18823;DHT22;9540;51.550;7.980;2023-01-16T11:30:17;4.50;99.90
18823;DHT22;9540;51.550;7.980;2023-01-16T11:32:47;4.50;99.90
18823;DHT22;9540;51.550;7.980;2023-01-16T11:35:17;4.50;99.90
18823;DHT22;9540;51.550;7.980;2023-01-16T11:37:48;4.50;99.90
18823;DHT22;9540;51.550;7.980;2023-01-16T11:40:19;4.60;99.90
18823;DHT22;9540;51.550;7.980;2023-01-16T11:42:53;4.60;99.90
18823;DHT22;9540;51.550;7.980;2023-01-16T11:45:43;4.80;99.90
18823;DHT22;9540;51.550;7.980;2023-01-16T11:48:35;4.80;99.90
18823;DHT22;9540;51.550;7.980;2023-01-16T11:51:04;4.90;99.90
18823;DHT22;9540;51.550;7.980;2023-01-16T11:53:33;5.00;99.90
18823;DHT22;9540;51.550;7.980;2023-01-16T11:56:32;5.10;99.90
18823;DHT22;9540;51.550;7.980;2023-01-16T11:59:12;5.20;99.90
18823;DHT22;9540;51.550;7.980;2023-01-16T12:01:53;5.30;99.90
18823;DHT22;9540;51.550;7.980;2023-01-16T12:04:42;5.40;99.90
18823;DHT22;9540;51.550;7.980;2023-01-16T12:07:37;5.40;99.90
18823;DHT22;9540;51.550;7.980;2023-01-16T12:10:18;5.50;99.90
18823;DHT22;9540;51.550;7.980;2023-01-16T12:12:52;5.60;99.90
18823;DHT22;9540;51.550;7.980;2023-01-16T12:15:48;5.70;99.90
18823;DHT22;9540;51.550;7.980;2023-01-16T12:18:22;5.70;99.90
18823;DHT22;9540;51.550;7.980;2023-01-16T12:20:56;5.80;99.90
18823;DHT22;9540;51.550;7.980;2023-01-16T12:23:47;5.80;99.90
18823;DHT22;9540;51.550;7.980;2023-01-16T12:26:21;5.70;99.90
18823;DHT22;9540;51.550;7.980;2023-01-16T12:29:00;5.60;99.90
18823;DHT22;9540;51.550;7.980;2023-01-16T12:31:55;5.90;99.90
18823;DHT22;9540;51.550;7.980;2023-01-16T12:34:37;6.10;99.90
18823;DHT22;9540;51.550;7.980;2023-01-16T12:37:22;6.20;99.90
18823;DHT22;9540;51.550;7.980;2023-01-16T12:40:00;6.20;99.90
18823;DHT22;9540;51.550;7.980;2023-01-16T12:42:37;6.10;99.90
18823;DHT22;9540;51.550;7.980;2023-01-16T12:45:34;6.00;99.90
18823;DHT22;9540;51.550;7.980;2023-01-16T12:48:17;6.20;99.90
18823;DHT22;9540;51.550;7.980;2023-01-16T12:50:59;6.50;99.90
18823;DHT22;9540;51.550;7.980;2023-01-16T12:53:54;6.70;99.90
18823;DHT22;9540;51.550;7.980;2023-01-16T12:56:37;6.70;99.90
18823;DHT22;9540;51.550;7.980;2023-01-16T12:59:11;6.60;99.90
18823;DHT22;9540;51.550;7.980;2023-01-16T13:01:42;6.90;99.90
18823;DHT22;9540;51.550;7.980;2023-01-16T13:04:14;7.00;99.90
18823;DHT22;9540;51.550;7.980;2023-01-16T13:06:46;7.00;99.90
18823;DHT22;9540;51.550;7.980;2023-01-16T13:09:22;6.70;99.90
18823;DHT22;9540;51.550;7.980;2023-01-16T13:11:59;6.40;99.90
18823;DHT22;9540;51.550;7.980;2023-01-16T13:14:46;5.90;99.90
18823;DHT22;9540;51.550;7.980;2023-01-16T13:17:19;5.70;99.90
18823;DHT22;9540;51.550;7.980;2023-01-16T13:19:49;5.60;99.90
18823;DHT22;9540;51.550;7.980;2023-01-16T13:22:21;5.60;99.90
18823;DHT22;9540;51.550;7.980;2023-01-16T13:24:55;5.70;99.90
18823;DHT22;9540;51.550;7.980;2023-01-16T13:27:36;5.70;99.90
18823;DHT22;9540;51.550;7.980;2023-01-16T13:30:09;5.60;99.90
18823;DHT22;9540;51.550;7.980;2023-01-16T13:32:39;5.50;99.90
18823;DHT22;9540;51.550;7.980;2023-01-16T13:35:13;5.40;99.90
18823;DHT22;9540;51.550;7.980;2023-01-16T13:43:43;5.20;99.90
18823;DHT22;9540;51.550;7.980;2023-01-16T13:46:30;5.30;99.90
18823;DHT22;9540;51.550;7.980;2023-01-16T13:49:00;5.30;99.90
18823;DHT22;9540;51.550;7.980;2023-01-16T13:51:28;5.40;99.90
18823;DHT22;9540;51.550;7.980;2023-01-16T13:53:57;5.40;99.90
18823;DHT22;9540;51.550;7.980;2023-01-16T13:56:26;5.40;99.90
18823;DHT22;9540;51.550;7.980;2023-01-16T13:59:00;5.40;99.90
18823;DHT22;9540;51.550;7.980;2023-01-16T14:01:37;5.30;99.90
18823;DHT22;9540;51.550;7.980;2023-01-16T14:04:31;5.10;99.90
18823;DHT22;9540;51.550;7.980;2023-01-16T14:07:00;5.10;99.90
18823;DHT22;9540;51.550;7.980;2023-01-16T14:10:16;5.10;99.90
18823;DHT22;9540;51.550;7.980;2023-01-16T14:13:01;5.10;99.90
18823;DHT22;9540;51.550;7.980;2023-01-16T14:18:36;5.00;99.90
18823;DHT22;9540;51.550;7.980;2023-01-16T14:21:16;5.10;99.90
18823;DHT22;9540;51.550;7.980;2023-01-16T14:23:48;5.10;99.90
18823;DHT22;9540;51.550;7.980;2023-01-16T14:26:34;5.10;99.90
18823;DHT22;9540;51.550;7.980;2023-01-16T14:29:13;5.10;99.90
18823;DHT22;9540;51.550;7.980;2023-01-16T14:31:44;5.10;99.90
18823;DHT22;9540;51.550;7.980;2023-01-16T14:34:17;5.10;99.90
18823;DHT22;9540;51.550;7.980;2023-01-16T14:36:49;5.00;99.90
18823;DHT22;9540;51.550;7.980;2023-01-16T14:39:36;5.00;99.90
18823;DHT22;9540;51.550;7.980;2023-01-16T14:42:16;5.00;99.90
18823;DHT22;9540;51.550;7.980;2023-01-16T14:45:25;4.90;99.90
18823;DHT22;9540;51.550;7.980;2023-01-16T14:48:12;5.00;99.90
18823;DHT22;9540;51.550;7.980;2023-01-16T14:51:10;5.00;99.90
18823;DHT22;9540;51.550;7.980;2023-01-16T14:53:58;5.00;99.90
18823;DHT22;9540;51.550;7.980;2023-01-16T14:56:43;4.90;99.90
18823;DHT22;9540;51.550;7.980;2023-01-16T14:59:16;5.00;99.90
18823;DHT22;9540;51.550;7.980;2023-01-16T15:01:47;4.90;99.90
18823;DHT22;9540;51.550;7.980;2023-01-16T15:04:39;4.90;99.90
18823;DHT22;9540;51.550;7.980;2023-01-16T15:07:15;4.80;99.90
18823;DHT22;9540;51.550;7.980;2023-01-16T15:09:43;4.80;99.90
18823;DHT22;9540;51.550;7.980;2023-01-16T15:12:13;4.80;99.90
18823;DHT22;9540;51.550;7.980;2023-01-16T15:14:52;4.80;99.90
18823;DHT22;9540;51.550;7.980;2023-01-16T15:17:25;4.80;99.90
18823;DHT22;9540;51.550;7.980;2023-01-16T15:20:22;4.70;99.90
18823;DHT22;9540;51.550;7.980;2023-01-16T15:23:26;4.60;99.90
18823;DHT22;9540;51.550;7.980;2023-01-16T15:26:20;4.60;99.90
18823;DHT22;9540;51.550;7.980;2023-01-16T15:28:59;4.60;99.90
18823;DHT22;9540;51.550;7.980;2023-01-16T15:31:32;4.60;99.90
18823;DHT22;9540;51.550;7.980;2023-01-16T15:34:01;4.60;99.90
18823;DHT22;9540;51.550;7.980;2023-01-16T15:36:35;4.60;99.90
18823;DHT22;9540;51.550;7.980;2023-01-16T15:39:16;4.60;99.90
18823;DHT22;9540;51.550;7.980;2023-01-16T15:41:45;4.50;99.90
18823;DHT22;9540;51.550;7.980;2023-01-16T15:44:33;4.40;99.90
18823;DHT22;9540;51.550;7.980;2023-01-16T15:47:34;4.30;99.90
18823;DHT22;9540;51.550;7.980;2023-01-16T15:50:24;4.30;99.90
18823;DHT22;9540;51.550;7.980;2023-01-16T15:52:53;4.20;99.90
18823;DHT22;9540;51.550;7.980;2023-01-16T15:55:25;4.20;99.90
18823;DHT22;9540;51.550;7.980;2023-01-16T15:57:54;4.20;99.90
18823;DHT22;9540;51.550;7.980;2023-01-16T16:00:26;4.10;99.90
18823;DHT22;9540;51.550;7.980;2023-01-16T16:02:56;4.10;99.90
18823;DHT22;9540;51.550;7.980;2023-01-16T16:05:23;4.20;99.90
18823;DHT22;9540;51.550;7.980;2023-01-16T16:07:52;4.20;99.90
18823;DHT22;9540;51.550;7.980;2023-01-16T16:10:19;4.20;99.90
18823;DHT22;9540;51.550;7.980;2023-01-16T16:13:05;4.20;99.90
18823;DHT22;9540;51.550;7.980;2023-01-16T16:15:33;4.30;99.90
18823;DHT22;9540;51.550;7.980;2023-01-16T16:18:19;4.20;99.90
18823;DHT22;9540;51.550;7.980;2023-01-16T16:20:49;4.10;99.90
18823;DHT22;9540;51.550;7.980;2023-01-16T16:23:18;4.10;99.90
18823;DHT22;9540;51.550;7.980;2023-01-16T16:25:48;3.90;99.90
18823;DHT22;9540;51.550;7.980;2023-01-16T16:28:23;3.90;99.90
18823;DHT22;9540;51.550;7.980;2023-01-16T16:30:56;3.90;99.90
18823;DHT22;9540;51.550;7.980;2023-01-16T16:33:25;3.90;99.90
18823;DHT22;9540;51.550;7.980;2023-01-16T16:35:54;3.80;99.90
18823;DHT22;9540;51.550;7.980;2023-01-16T16:38:24;3.80;99.90
18823;DHT22;9540;51.550;7.980;2023-01-16T16:44:34;3.80;99.90
18823;DHT22;9540;51.550;7.980;2023-01-16T16:47:02;3.90;99.90
18823;DHT22;9540;51.550;7.980;2023-01-16T16:49:31;3.90;99.90
18823;DHT22;9540;51.550;7.980;2023-01-16T16:52:19;3.90;99.90
18823;DHT22;9540;51.550;7.980;2023-01-16T16:54:52;4.00;99.90
18823;DHT22;9540;51.550;7.980;2023-01-16T16:57:19;3.90;99.90